Armstrong, PA

5:55 AM EST on January 30, 2015 (GMT -0500)
APRSWXNET Williamsport PA US | Change Station
CLOSE
Current Station
Personal Weather Station
Location: Williamsport, PA
Elevation: 610 ft
Nearby Weather Stations
Active Advisory: Wind Chill Advisory

Elev 610 ft 41.26 °N, 76.98 °W | Updated 22 minutes ago

Snow
Snow
28 °F
Feels Like 28 °F
N
0
Wind Variable Wind from West
Gusts 0.0 mph

Today
High -- | Low -- °F
--% Chance of Precip.
Yesterday
High -- | Low -- °F
Precip. -- in
7:21 AM 5:21 PM
Waxing Gibbous, 82% visible
Pressure 29.88 in
Visibility 3.0 miles
Clouds Scattered Clouds 600 ft
Mostly Cloudy 1300 ft
Overcast 2900 ft
Windchill 28 °F
Dew Point 24 °F
Humidity 85%
Rainfall -999.00 in
Snow Depth Not available.
UV 0 out of 12
Pollen .10 out of 12
Air Quality Not available.
Flu Activity Not available.
SPECI KIPT 301047Z AUTO 31003KT 3SM -SN BR SCT006 BKN013 OVC029 M03/M04 A2988 RMK AO2 P0004 T10281039

More Conditions Fewer Conditions

Pressure 29.88 in
Visibility 3.0 miles
Clouds Scattered Clouds 600 ft
Mostly Cloudy 1300 ft
Overcast 2900 ft
Windchill 28 °F
Dew Point 24 °F
Humidity 85%
Rainfall -999.00 in
Snow Depth Not available.
UV 0 out of 12
Pollen .10 out of 12
Air Quality Not available.
Flu Activity Not available.
SPECI KIPT 301047Z AUTO 31003KT 3SM -SN BR SCT006 BKN013 OVC029 M03/M04 A2988 RMK AO2 P0004 T10281039

More Conditions Fewer Conditions

Nowcast | as of 4:14 am EST on January 30, 2015

Bands of light to moderate snow will continue to cross central Pennsylvania through 5 am. Little additional snow accumulation is expected during this time...but persons traveling early this morning should be alert for poor travel conditions and allow extra time to reach your destination.

×

10-Day Weather Forecast

Almanac

Astronomy

Jan. 30, 2015 Rise Set
Actual Time
Civil Twilight
Nautical Twilight
Astronomical Twilight
Moon
Length of Visible Light
Length of Day
Tomorrow will be .
, % of the Moon is Illuminated

Today's Extremes

State Highs State Lows

Community

WunderPhotos

Upload Photos

1,791,736 photos uploaded!

WunderBlogs® & News

Nearby

Air Quality

  Air Quality AQ Index Pollutant
Not available.

Snow Depth

Station Depth Elevation

Earthquake Activity

City Distance Mag. Time & Date
Minimum magnitude displayed is 2.5.

Coastal Water Temperatures

Place Temperature

Nearby Weather Stations